Time;durP1;ratioP1;P1;durP2;ratioP2;P2;SDS_P1;SDS_P2;PMS_P1;PMS_P2;Temp;Humidity;BMP_temperature;BMP_pressure;BME280_temperature;BME280_humidity;BME280_pressure;Samples;Min_cycle;Max_cycle;Signal;HPM_P1;HPM_P2
2023/05/28 00:02:00;;;;;;;15.10;4.50;;;;;;;16.41;75.28;101178.64;107596;1251;111039;-68
2023/05/28 00:04:28;;;;;;;16.80;5.40;;;;;;;16.42;75.06;101179.08;107609;1255;110154;-67
2023/05/28 00:06:57;;;;;;;13.50;5.20;;;;;;;16.42;74.80;101179.77;107600;1251;107668;-68
2023/05/28 00:09:25;;;;;;;13.00;5.80;;;;;;;16.47;75.06;101178.79;107590;1256;96570;-66
2023/05/28 00:11:56;;;;;;;10.10;5.00;;;;;;;16.50;75.08;101179.88;107604;1251;97048;-69
2023/05/28 00:14:24;;;;;;;14.30;4.80;;;;;;;16.49;74.93;101186.70;107617;1255;109490;-67
2023/05/28 00:16:52;;;;;;;18.10;6.10;;;;;;;16.52;74.82;101184.04;107598;1251;110480;-69
2023/05/28 00:19:21;;;;;;;19.00;5.40;;;;;;;16.55;75.17;101188.26;107618;1252;108233;-67
2023/05/28 00:21:50;;;;;;;18.10;6.10;;;;;;;16.53;74.56;101189.70;107577;1254;96398;-67
2023/05/28 00:24:19;;;;;;;15.50;5.60;;;;;;;16.44;74.08;101189.98;107533;1251;97022;-66
2023/05/28 00:26:47;;;;;;;13.00;5.00;;;;;;;16.28;73.87;101183.23;107531;1256;110978;-65
2023/05/28 00:29:17;;;;;;;22.30;5.30;;;;;;;16.16;74.12;101186.89;107545;1251;108740;-67
2023/05/28 00:31:46;;;;;;;13.30;5.20;;;;;;;16.08;74.56;101191.23;107596;1256;108197;-67
2023/05/28 00:34:15;;;;;;;16.10;5.50;;;;;;;15.97;74.54;101192.50;107537;1256;96458;-68
2023/05/28 00:36:43;;;;;;;8.80;4.00;;;;;;;15.95;74.72;101193.63;107500;1251;97007;-67
2023/05/28 00:39:11;;;;;;;13.70;5.30;;;;;;;16.02;75.01;101191.98;107660;1255;110112;-66
2023/05/28 00:41:40;;;;;;;9.50;4.70;;;;;;;16.09;75.17;101184.19;107568;1251;109100;-67
2023/05/28 00:44:12;;;;;;;21.60;5.60;;;;;;;16.13;75.07;101177.08;107479;1251;108307;-68
2023/05/28 00:46:45;;;;;;;22.40;5.10;;;;;;;16.10;74.76;101176.28;107534;1251;96452;-66
2023/05/28 00:49:14;;;;;;;11.60;5.30;;;;;;;15.99;74.55;101175.48;107622;1256;96500;-67
2023/05/28 00:51:42;;;;;;;15.70;5.30;;;;;;;15.87;74.57;101177.69;107564;1254;110089;-65
2023/05/28 00:54:11;;;;;;;14.80;5.20;;;;;;;15.78;74.47;101177.69;107614;1257;110186;-67
2023/05/28 00:56:40;;;;;;;20.40;5.40;;;;;;;15.74;74.82;101172.03;107532;1251;107203;-66
2023/05/28 00:59:09;;;;;;;15.30;5.70;;;;;;;15.78;75.08;101174.90;107576;1255;96561;-67
2023/05/28 01:01:39;;;;;;;14.20;5.50;;;;;;;15.81;75.28;101174.78;107653;1254;96546;-67
2023/05/28 01:04:07;;;;;;;11.80;4.50;;;;;;;15.83;74.84;101172.48;107569;1257;110807;-67
2023/05/28 01:06:38;;;;;;;23.00;6.00;;;;;;;15.86;74.47;101172.36;107639;1251;109288;-68
2023/05/28 01:09:08;;;;;;;8.50;4.70;;;;;;;15.88;73.98;101164.30;107507;1255;106612;-68
2023/05/28 01:11:39;;;;;;;11.90;4.80;;;;;;;15.87;73.43;101162.34;107598;1251;96469;-67
2023/05/28 01:14:09;;;;;;;9.50;4.70;;;;;;;15.84;72.87;101163.09;107603;1251;96347;-67
2023/05/28 01:16:39;;;;;;;28.50;5.50;;;;;;;15.77;72.38;101168.65;107627;1251;110813;-66
2023/05/28 01:19:09;;;;;;;10.30;4.20;;;;;;;15.75;72.45;101167.11;107590;1251;110095;-68
2023/05/28 01:21:43;;;;;;;21.50;4.50;;;;;;;15.73;72.26;101166.98;107603;1256;107593;-66
2023/05/28 01:24:15;;;;;;;11.30;4.70;;;;;;;15.72;72.20;101171.81;107612;1251;96638;-69
2023/05/28 01:26:44;;;;;;;14.70;4.70;;;;;;;15.69;71.95;101175.31;107622;1256;96968;-66
2023/05/28 01:29:14;;;;;;;17.80;4.90;;;;;;;15.69;71.98;101173.66;107562;1255;110847;-69
2023/05/28 01:31:44;;;;;;;17.80;5.10;;;;;;;15.68;71.51;101176.84;107563;1251;110156;-66
2023/05/28 01:34:13;;;;;;;13.60;4.60;;;;;;;15.64;71.40;101177.59;107596;1251;107145;-67
2023/05/28 01:36:48;;;;;;;11.40;5.00;;;;;;;15.61;71.16;101181.37;107601;1251;97815;-66
2023/05/28 01:39:19;;;;;;;12.20;5.00;;;;;;;15.57;71.04;101182.83;107577;1255;97806;-67
2023/05/28 01:41:50;;;;;;;15.20;4.90;;;;;;;15.56;71.06;101176.14;107577;1256;111197;-69
2023/05/28 01:44:24;;;;;;;11.90;4.50;;;;;;;15.51;70.78;101174.48;107641;1251;109450;-69
2023/05/28 01:46:54;;;;;;;;;;;;;;;15.44;70.55;101178.38;107594;1251;108853;-67
2023/05/28 01:49:23;;;;;;;10.70;5.40;;;;;;;15.39;70.59;101178.43;107635;1254;98399;-68
2023/05/28 01:51:51;;;;;;;18.00;5.00;;;;;;;15.34;70.56;101173.80;107706;1251;97806;-67
2023/05/28 01:54:20;;;;;;;11.60;5.00;;;;;;;15.30;70.60;101171.95;107575;1251;112155;-67
2023/05/28 01:56:48;;;;;;;16.40;5.00;;;;;;;15.25;70.90;101174.38;107507;1251;108702;-67
2023/05/28 01:59:18;;;;;;;10.30;4.50;;;;;;;15.18;71.21;101177.46;107575;1251;108607;-67
2023/05/28 02:01:46;;;;;;;13.70;5.00;;;;;;;15.12;71.25;101179.65;107658;1255;97943;-66
2023/05/28 02:04:16;;;;;;;11.30;4.70;;;;;;;15.06;71.29;101179.63;107609;1251;98355;-69
2023/05/28 02:06:49;;;;;;;18.60;5.10;;;;;;;14.98;71.56;101180.70;107718;1251;111545;-71
2023/05/28 02:09:19;;;;;;;11.20;4.20;;;;;;;14.93;71.51;101182.31;107706;1251;110010;-69
2023/05/28 02:11:49;;;;;;;23.70;6.40;;;;;;;14.89;71.67;101179.81;107573;1251;108638;-67
2023/05/28 02:14:19;;;;;;;15.70;5.20;;;;;;;14.89;71.81;101182.57;107491;1251;97852;-68
2023/05/28 02:16:52;;;;;;;12.50;4.80;;;;;;;14.88;71.63;101184.29;107624;1256;97829;-66
2023/05/28 02:19:21;;;;;;;15.60;4.80;;;;;;;14.85;71.45;101184.74;107515;1251;111182;-67
2023/05/28 02:21:49;;;;;;;9.00;4.40;;;;;;;14.79;71.33;101185.70;107568;1251;109965;-67
2023/05/28 02:24:19;;;;;;;15.90;4.40;;;;;;;14.74;71.40;101189.27;107538;1251;108402;-66
2023/05/28 02:26:51;;;;;;;14.20;5.50;;;;;;;14.69;71.64;101187.05;107569;1251;97685;-68
2023/05/28 02:29:19;;;;;;;8.70;4.00;;;;;;;14.64;71.73;101194.70;107569;1250;98532;-68
2023/05/28 02:31:48;;;;;;;21.60;4.80;;;;;;;14.61;71.74;101199.88;107573;1251;112257;-73
2023/05/28 02:34:16;;;;;;;12.80;4.70;;;;;;;14.61;71.69;101208.23;107614;1251;110130;-66
2023/05/28 02:36:44;;;;;;;14.00;5.00;;;;;;;14.60;71.51;101215.50;107485;1251;107629;-68
2023/05/28 02:39:13;;;;;;;12.60;5.30;;;;;;;14.60;71.41;101212.42;107580;1256;97851;-66
2023/05/28 02:41:42;;;;;;;18.30;5.30;;;;;;;14.60;71.41;101214.82;107678;1251;97847;-69
2023/05/28 02:44:11;;;;;;;20.50;5.00;;;;;;;14.59;71.20;101221.80;107575;1250;112346;-68
2023/05/28 02:46:40;;;;;;;13.20;4.50;;;;;;;14.53;70.84;101220.14;107606;1251;107469;-66
2023/05/28 02:49:09;;;;;;;20.80;5.00;;;;;;;14.49;71.14;101219.26;107579;1251;108665;-67
2023/05/28 02:51:37;;;;;;;14.70;5.40;;;;;;;14.45;71.27;101220.03;107588;1251;97717;-65
2023/05/28 02:54:32;;;;;;;12.20;4.30;;;;;;;14.44;71.32;101214.73;107710;1249;97554;-67
2023/05/28 02:57:00;;;;;;;13.30;4.40;;;;;;;14.42;71.07;101216.56;107685;1251;110891;-66
2023/05/28 02:59:29;;;;;;;18.70;4.90;;;;;;;14.41;71.14;101221.90;107623;1250;109663;-66
2023/05/28 03:02:00;;;;;;;22.10;4.90;;;;;;;14.41;71.09;101223.73;107558;1253;107895;-67
2023/05/28 03:04:28;;;;;;;18.90;5.20;;;;;;;14.36;70.97;101224.73;107633;1251;97724;-67
2023/05/28 03:06:57;;;;;;;12.80;4.90;;;;;;;14.29;70.74;101229.36;107606;1254;97889;-67
2023/05/28 03:09:29;;;;;;;12.80;4.30;;;;;;;14.25;70.71;101231.21;107561;1251;111744;-67
2023/05/28 03:11:58;;;;;;;13.90;4.60;;;;;;;14.24;70.67;101239.40;107689;1251;109720;-67
2023/05/28 03:14:30;;;;;;;22.40;5.00;;;;;;;14.26;70.57;101246.41;107669;1251;108727;-69
2023/05/28 03:16:59;;;;;;;12.60;4.50;;;;;;;14.26;70.39;101243.91;107571;1251;97809;-68
2023/05/28 03:19:28;;;;;;;11.10;4.40;;;;;;;14.23;70.43;101248.16;107624;1251;97723;-65
2023/05/28 03:21:56;;;;;;;15.60;4.90;;;;;;;14.18;70.39;101253.20;107608;1251;111644;-68
2023/05/28 03:24:27;;;;;;;15.70;5.20;;;;;;;14.13;70.64;101250.60;107594;1251;109217;-66
2023/05/28 03:26:59;;;;;;;14.80;4.50;;;;;;;14.08;70.77;101253.74;107620;1251;107976;-67
2023/05/28 03:29:28;;;;;;;11.30;4.20;;;;;;;14.05;70.58;101255.45;107621;1251;97832;-67
2023/05/28 03:32:17;;;;;;;11.10;4.10;;;;;;;14.00;70.65;101259.89;107515;1251;98353;-67
2023/05/28 03:34:45;;;;;;;22.30;4.20;;;;;;;13.99;70.61;101262.37;107612;1251;112426;-67
2023/05/28 03:37:14;;;;;;;15.00;4.90;;;;;;;13.97;70.58;101263.99;107542;1254;109196;-67
2023/05/28 03:40:04;;;;;;;17.80;4.30;;;;;;;13.93;70.53;101262.38;107604;1252;108739;-68
2023/05/28 03:42:32;;;;;;;14.10;4.10;;;;;;;13.93;70.69;101267.02;107494;1251;97816;-65
2023/05/28 03:45:01;;;;;;;21.20;4.50;;;;;;;13.96;70.56;101266.92;107549;1251;97825;-66
2023/05/28 03:47:31;;;;;;;17.30;4.90;;;;;;;13.96;70.39;101270.17;107681;1251;110722;-67
2023/05/28 03:50:00;;;;;;;12.10;4.70;;;;;;;13.94;70.52;101268.27;107539;1253;109370;-66
2023/05/28 03:52:29;;;;;;;13.60;5.00;;;;;;;13.90;70.37;101268.06;107542;1252;107769;-66
2023/05/28 03:54:57;;;;;;;17.00;5.00;;;;;;;13.89;70.42;101267.62;107666;1251;97735;-69
2023/05/28 03:57:26;;;;;;;15.10;4.50;;;;;;;13.91;70.49;101267.59;107556;1251;97827;-67
2023/05/28 03:59:57;;;;;;;15.70;5.50;;;;;;;13.94;70.27;101266.07;107603;1251;111729;-68
2023/05/28 04:02:25;;;;;;;12.60;4.70;;;;;;;13.94;70.06;101274.00;107643;1255;109594;-67
2023/05/28 04:04:54;;;;;;;12.40;4.20;;;;;;;13.95;70.04;101273.77;107673;1251;108826;-66
2023/05/28 04:07:23;;;;;;;13.10;4.70;;;;;;;13.98;70.03;101271.12;107609;1251;97863;-66
2023/05/28 04:09:51;;;;;;;10.70;4.40;;;;;;;14.06;70.03;101270.19;107607;1256;98445;-67
2023/05/28 04:12:19;;;;;;;12.10;4.50;;;;;;;14.17;69.88;101273.86;107611;1251;111275;-66
2023/05/28 04:14:48;;;;;;;14.10;4.00;;;;;;;14.25;69.42;101274.14;107558;1251;110176;-67
2023/05/28 04:17:18;;;;;;;10.90;4.60;;;;;;;14.31;68.82;101275.34;107567;1253;108150;-69
2023/05/28 04:19:48;;;;;;;10.40;4.50;;;;;;;14.36;68.74;101270.67;107552;1251;97899;-68
2023/05/28 04:22:17;;;;;;;18.10;4.60;;;;;;;14.50;68.83;101270.98;107632;1251;98390;-71
2023/05/28 04:24:47;;;;;;;15.20;4.40;;;;;;;14.63;68.43;101270.30;107674;1251;111430;-67
2023/05/28 04:27:17;;;;;;;10.20;4.20;;;;;;;14.76;68.14;101270.67;107580;1251;108744;-66
2023/05/28 04:29:52;;;;;;;15.10;4.80;;;;;;;14.87;67.90;101274.97;107586;1251;108151;-68
2023/05/28 04:32:22;;;;;;;12.10;4.40;;;;;;;14.97;67.66;101277.59;107585;1251;97834;-68
2023/05/28 04:34:53;;;;;;;13.90;4.20;;;;;;;15.09;67.32;101281.30;107633;1250;98298;-68
2023/05/28 04:37:22;;;;;;;12.00;4.60;;;;;;;15.22;67.23;101279.52;107611;1251;111289;-66
2023/05/28 04:39:51;;;;;;;10.00;4.40;;;;;;;15.32;66.85;101278.28;107566;1251;108774;-66
2023/05/28 04:42:19;;;;;;;24.30;10.60;;;;;;;15.38;65.54;101278.69;107569;1251;107643;-69
2023/05/28 04:44:48;;;;;;;10.90;4.70;;;;;;;15.41;65.54;101277.40;107563;1251;97697;-66
2023/05/28 04:47:17;;;;;;;17.30;4.80;;;;;;;15.45;65.31;101279.17;107621;1254;97694;-67
2023/05/28 04:49:47;;;;;;;12.50;4.20;;;;;;;15.48;65.34;101281.54;107589;1251;111251;-66
2023/05/28 04:52:16;;;;;;;15.30;5.10;;;;;;;15.49;64.91;101284.02;107562;1251;109068;-66
2023/05/28 04:54:45;;;;;;;13.10;4.20;;;;;;;15.49;64.71;101286.73;107678;1250;107042;-70
2023/05/28 04:57:13;;;;;;;12.90;4.10;;;;;;;15.52;65.13;101286.41;107676;1251;97827;-67
2023/05/28 04:59:43;;;;;;;10.70;4.00;;;;;;;15.54;64.68;101284.77;107623;1251;98379;-66
2023/05/28 05:02:12;;;;;;;10.30;4.70;;;;;;;15.54;64.77;101282.61;107779;1251;111332;-67
2023/05/28 05:04:42;;;;;;;9.00;4.10;;;;;;;15.65;65.31;101281.98;107687;1251;109722;-68
2023/05/28 05:07:14;;;;;;;16.00;5.30;;;;;;;15.78;65.47;101278.89;107583;1251;107495;-66
2023/05/28 05:09:43;;;;;;;15.00;4.20;;;;;;;15.93;65.55;101281.61;107598;1251;97826;-66
2023/05/28 05:12:11;;;;;;;11.20;4.30;;;;;;;16.06;65.54;101279.83;107537;1251;97713;-68
2023/05/28 05:14:42;;;;;;;13.80;4.00;;;;;;;16.17;65.20;101276.03;107592;1251;111169;-67
2023/05/28 05:17:12;;;;;;;23.50;4.70;;;;;;;16.25;64.97;101276.28;107533;1251;109672;-66
2023/05/28 05:19:41;;;;;;;9.80;4.30;;;;;;;16.35;64.98;101281.58;107564;1251;107925;-67
2023/05/28 05:22:09;;;;;;;11.90;3.80;;;;;;;16.48;64.89;101284.15;107650;1251;97817;-66
2023/05/28 05:24:39;;;;;;;12.40;4.00;;;;;;;16.57;64.51;101284.36;107535;1251;97879;-67
2023/05/28 05:27:08;;;;;;;11.40;4.00;;;;;;;16.64;64.33;101288.09;107765;1251;111272;-66
2023/05/28 05:29:36;;;;;;;12.10;4.60;;;;;;;16.77;64.64;101294.73;107595;1251;109644;-68
2023/05/28 05:32:06;;;;;;;14.90;4.20;;;;;;;16.85;64.48;101293.11;107594;1251;108335;-65
2023/05/28 05:34:36;;;;;;;17.80;4.70;;;;;;;16.93;64.44;101293.55;107645;1256;97938;-66
2023/05/28 05:37:31;;;;;;;10.30;3.80;;;;;;;16.97;63.79;101293.30;107434;1251;97727;-66
2023/05/28 05:40:35;;;;;;;10.70;4.40;;;;;;;16.99;63.45;101293.79;107150;1257;110809;-67
2023/05/28 05:43:10;;;;;;;12.20;3.70;;;;;;;17.03;63.30;101295.77;107537;1251;107828;-68
2023/05/28 05:45:41;;;;;;;12.00;4.80;;;;;;;17.05;63.29;101296.48;107632;1256;107652;-68
2023/05/28 05:48:12;;;;;;;10.50;3.90;;;;;;;17.09;63.26;101296.35;107487;1254;97831;-67
2023/05/28 05:50:49;;;;;;;11.30;4.50;;;;;;;17.16;63.05;101299.63;107637;1251;98433;-67
2023/05/28 05:53:20;;;;;;;11.20;4.00;;;;;;;17.21;62.86;101300.54;107514;1251;112330;-70
2023/05/28 05:55:49;;;;;;;17.20;5.10;;;;;;;17.25;61.30;101305.73;107618;1249;110024;-67
2023/05/28 05:58:18;;;;;;;9.80;4.10;;;;;;;17.27;61.46;101313.52;107582;1250;108333;-68
2023/05/28 06:00:50;;;;;;;18.90;4.50;;;;;;;17.33;61.33;101313.73;107657;1252;97892;-70
2023/05/28 06:03:20;;;;;;;12.80;5.20;;;;;;;17.40;61.19;101309.52;107758;1250;97931;-67
2023/05/28 06:06:03;;;;;;;;;;;;;;;17.46;60.97;101309.19;107650;1251;111280;-70
2023/05/28 06:08:45;;;;;;;17.10;5.20;;;;;;;17.51;60.96;101304.58;107654;1250;109219;-69
2023/05/28 06:11:16;;;;;;;8.00;4.10;;;;;;;17.56;60.94;101304.95;107639;1251;109527;-66
2023/05/28 06:13:45;;;;;;;9.30;4.20;;;;;;;17.58;60.83;101306.11;107678;1251;97911;-69
2023/05/28 06:16:14;;;;;;;11.20;4.10;;;;;;;17.59;60.56;101307.52;107686;1251;97955;-68
2023/05/28 06:18:42;;;;;;;9.40;4.20;;;;;;;17.60;60.53;101313.33;107599;1251;111672;-68
2023/05/28 06:21:12;;;;;;;31.20;4.60;;;;;;;17.62;59.97;101313.35;107568;1251;109127;-66
2023/05/28 06:23:40;;;;;;;16.20;3.90;;;;;;;17.64;59.31;101314.33;107656;1255;108500;-67
2023/05/28 06:26:09;;;;;;;10.90;4.40;;;;;;;17.71;59.24;101309.40;107700;1251;97844;-67
2023/05/28 06:28:37;;;;;;;11.70;4.60;;;;;;;17.79;59.33;101310.95;107590;1251;97809;-69
2023/05/28 06:31:06;;;;;;;18.70;5.30;;;;;;;17.88;58.94;101314.55;107515;1250;111308;-67
2023/05/28 06:33:35;;;;;;;9.70;4.00;;;;;;;17.93;58.09;101315.86;107620;1250;110032;-66
2023/05/28 06:36:04;;;;;;;12.70;4.70;;;;;;;17.92;57.65;101315.95;107684;1252;107599;-70
2023/05/28 06:38:32;;;;;;;7.80;4.80;;;;;;;17.94;57.85;101317.77;107717;1251;98448;-70
2023/05/28 06:41:01;;;;;;;13.20;4.30;;;;;;;17.96;57.74;101321.75;107595;1249;97858;-66
2023/05/28 06:43:34;;;;;;;7.50;4.30;;;;;;;17.95;57.89;101319.54;107717;1251;111977;-67
2023/05/28 06:46:16;;;;;;;12.40;4.50;;;;;;;17.92;58.14;101319.81;107534;1254;109143;-72
2023/05/28 06:48:46;;;;;;;16.20;5.50;;;;;;;17.90;58.09;101322.38;107661;1257;108188;-66
2023/05/28 06:51:15;;;;;;;12.80;4.70;;;;;;;17.85;57.76;101322.22;107631;1251;97927;-67
2023/05/28 06:53:43;;;;;;;8.80;3.80;;;;;;;17.81;58.01;101320.46;107560;1251;98426;-68
2023/05/28 06:56:13;;;;;;;13.60;4.40;;;;;;;17.80;58.27;101314.79;107621;1251;112164;-67
2023/05/28 06:58:59;;;;;;;17.50;4.60;;;;;;;17.80;58.36;101321.69;107615;1251;110139;-70
2023/05/28 07:01:54;;;;;;;15.70;4.90;;;;;;;17.80;58.11;101320.77;107445;1251;107866;-69
2023/05/28 07:04:51;;;;;;;11.10;4.40;;;;;;;17.81;57.75;101323.39;107543;1251;97687;-65
2023/05/28 07:07:25;;;;;;;;;;;;;;;17.84;57.47;101317.20;107612;1251;97789;-66
2023/05/28 07:09:53;;;;;;;12.30;4.30;;;;;;;17.85;57.90;101316.73;107682;1250;112152;-69
2023/05/28 07:12:22;;;;;;;12.10;4.40;;;;;;;17.86;58.14;101310.99;107695;1253;107689;-66
2023/05/28 07:14:54;;;;;;;11.30;4.60;;;;;;;17.88;57.96;101307.02;107619;1250;108729;-66
2023/05/28 07:17:23;;;;;;;12.70;4.80;;;;;;;17.90;58.45;101307.67;107611;1251;97834;-66
2023/05/28 07:19:53;;;;;;;10.60;4.70;;;;;;;17.97;58.50;101311.52;107739;1251;98463;-69
2023/05/28 07:22:33;;;;;;;15.40;4.80;;;;;;;18.04;58.19;101309.02;107724;1252;111295;-66
2023/05/28 07:25:01;;;;;;;8.10;4.50;;;;;;;18.13;58.28;101311.14;107745;1251;108848;-67
2023/05/28 07:27:30;;;;;;;18.80;6.20;;;;;;;18.23;58.50;101312.00;107614;1256;108851;-67
2023/05/28 07:29:59;;;;;;;18.40;5.00;;;;;;;18.37;58.01;101316.77;107598;1251;97800;-67
2023/05/28 07:32:27;;;;;;;10.90;4.20;;;;;;;18.45;57.64;101313.88;107600;1254;97911;-66
2023/05/28 07:34:57;;;;;;;16.10;4.20;;;;;;;18.55;58.00;101313.67;107627;1253;111404;-67
2023/05/28 07:37:26;;;;;;;8.40;4.30;;;;;;;18.66;56.84;101309.41;107639;1251;109404;-66
2023/05/28 07:39:54;;;;;;;11.30;5.10;;;;;;;18.71;56.45;101310.37;107589;1250;107831;-68
2023/05/28 07:42:23;;;;;;;15.10;4.40;;;;;;;18.79;56.94;101308.37;107718;1250;97848;-67
2023/05/28 07:45:00;;;;;;;17.50;4.80;;;;;;;18.90;56.35;101304.12;107548;1251;97729;-66
2023/05/28 07:47:32;;;;;;;14.30;4.50;;;;;;;18.95;55.66;101307.13;107498;1251;112372;-70
2023/05/28 07:50:11;;;;;;;12.70;4.60;;;;;;;19.00;55.51;101305.12;107681;1250;109462;-66
2023/05/28 07:53:05;;;;;;;16.20;5.00;;;;;;;19.04;55.10;101304.50;107501;1251;108689;-67
2023/05/28 07:55:34;;;;;;;12.50;4.60;;;;;;;19.02;55.00;101302.15;107671;1250;97813;-67
2023/05/28 07:58:03;;;;;;;19.90;4.60;;;;;;;18.99;55.68;101309.22;107740;1256;97928;-66
2023/05/28 08:00:33;;;;;;;14.10;4.90;;;;;;;19.05;55.92;101310.17;107138;1251;671054;-69
2023/05/28 08:03:03;;;;;;;9.00;4.50;;;;;;;19.10;55.85;101302.71;107649;1251;108756;-67
2023/05/28 08:05:38;;;;;;;19.10;5.00;;;;;;;19.14;55.76;101303.75;107577;1251;108865;-66
2023/05/28 08:08:07;;;;;;;18.40;5.50;;;;;;;19.17;55.81;101306.02;107608;1251;97710;-69
2023/05/28 08:10:38;;;;;;;15.50;4.60;;;;;;;19.19;55.46;101304.15;107561;1251;98542;-68
2023/05/28 08:13:06;;;;;;;19.80;4.90;;;;;;;19.24;55.41;101306.00;107592;1251;111004;-68
2023/05/28 08:15:36;;;;;;;19.10;5.20;;;;;;;19.26;55.41;101303.19;107588;1251;109745;-69
2023/05/28 08:18:06;;;;;;;12.70;4.60;;;;;;;19.28;54.87;101299.84;107652;1251;106569;-65
2023/05/28 08:20:35;;;;;;;14.30;5.30;;;;;;;19.25;54.32;101298.23;107679;1256;97836;-67
2023/05/28 08:23:15;;;;;;;9.20;4.70;;;;;;;19.17;55.33;101300.02;107601;1251;97675;-70
2023/05/28 08:25:44;;;;;;;18.30;5.30;;;;;;;19.13;55.40;101299.59;107577;1251;111845;-67
2023/05/28 08:28:18;;;;;;;10.10;4.70;;;;;;;19.14;55.92;101298.73;107577;1251;109770;-67
2023/05/28 08:30:48;;;;;;;13.10;4.20;;;;;;;19.17;56.11;101301.69;107600;1250;108635;-68
2023/05/28 08:33:34;;;;;;;19.90;5.10;;;;;;;19.21;56.37;101301.01;107671;1250;97892;-69
2023/05/28 08:36:03;;;;;;;20.80;4.90;;;;;;;19.29;56.70;101298.46;107624;1251;98347;-65
2023/05/28 08:38:33;;;;;;;17.40;4.80;;;;;;;19.41;57.12;101297.84;107648;1251;112302;-67
2023/05/28 08:41:05;;;;;;;13.20;4.90;;;;;;;19.54;57.16;101297.49;107581;1251;109786;-66
2023/05/28 08:43:33;;;;;;;12.20;4.70;;;;;;;19.69;57.04;101297.23;107539;1251;108729;-68
2023/05/28 08:46:04;;;;;;;14.40;4.70;;;;;;;19.88;56.89;101289.68;107517;1251;97806;-65
2023/05/28 08:48:41;;;;;;;8.30;5.10;;;;;;;20.12;56.32;101291.91;107539;1254;97980;-68
2023/05/28 08:51:11;;;;;;;19.60;5.10;;;;;;;20.29;54.91;101294.09;107616;1251;111251;-71
2023/05/28 08:53:47;;;;;;;16.70;5.60;;;;;;;20.28;54.35;101290.02;107537;1251;108843;-69
2023/05/28 08:56:21;;;;;;;16.80;5.60;;;;;;;20.39;54.47;101297.27;107498;1251;108073;-67
2023/05/28 08:58:51;;;;;;;13.50;4.70;;;;;;;20.51;54.74;101300.17;107702;1251;97808;-66
2023/05/28 09:01:20;;;;;;;20.40;5.00;;;;;;;20.71;54.88;101293.13;107567;1250;98350;-68
2023/05/28 09:04:00;;;;;;;13.90;5.20;;;;;;;20.93;53.43;101286.63;107464;1254;111373;-68
2023/05/28 09:06:40;;;;;;;11.60;5.20;;;;;;;21.03;52.09;101287.58;107577;1251;110201;-69
2023/05/28 09:09:15;;;;;;;11.40;4.60;;;;;;;21.11;51.74;101285.05;107544;1249;107417;-69
2023/05/28 09:11:47;;;;;;;10.80;4.80;;;;;;;21.22;51.95;101284.09;107472;1251;97939;-68
2023/05/28 09:14:19;;;;;;;13.20;5.00;;;;;;;21.37;52.50;101284.16;107714;1255;97701;-68
2023/05/28 09:16:49;;;;;;;27.50;5.20;;;;;;;21.63;52.26;101289.12;107743;1251;111279;-68
2023/05/28 09:19:28;;;;;;;16.30;5.60;;;;;;;21.86;51.55;101286.34;107612;1254;108899;-66
2023/05/28 09:21:59;;;;;;;8.40;4.80;;;;;;;22.13;51.51;101288.21;107561;1251;108566;-67
2023/05/28 09:24:33;;;;;;;10.80;5.10;;;;;;;22.41;51.12;101284.95;107665;1251;97838;-68
2023/05/28 09:27:21;;;;;;;10.00;4.90;;;;;;;22.74;49.09;101282.33;107638;1250;97674;-67
2023/05/28 09:29:51;;;;;;;19.50;4.70;;;;;;;22.88;48.77;101278.23;107663;1251;112394;-68
2023/05/28 09:32:23;;;;;;;19.70;4.20;;;;;;;23.03;48.40;101278.89;107536;1251;108588;-69
2023/05/28 09:34:52;;;;;;;16.10;5.50;;;;;;;23.21;47.71;101274.09;107611;1251;108222;-68
2023/05/28 09:37:21;;;;;;;18.50;6.20;;;;;;;23.34;47.83;101279.61;107518;1251;97763;-69
2023/05/28 09:40:00;;;;;;;16.30;6.10;;;;;;;23.44;47.37;101275.48;107505;1251;98381;-69
2023/05/28 09:42:43;;;;;;;14.20;5.00;;;;;;;23.55;46.66;101270.88;107502;1251;110537;-67
2023/05/28 09:45:23;;;;;;;11.10;5.10;;;;;;;23.70;47.20;101271.73;107561;1251;110281;-66
2023/05/28 09:47:52;;;;;;;10.70;4.40;;;;;;;23.89;46.78;101260.45;107627;1251;108546;-66
2023/05/28 09:50:23;;;;;;;12.70;4.60;;;;;;;24.03;46.54;101260.65;107568;1251;97808;-72
2023/05/28 09:52:55;;;;;;;17.40;6.40;;;;;;;24.11;45.72;101257.94;107661;1251;97733;-68
2023/05/28 09:55:25;;;;;;;23.50;6.10;;;;;;;24.03;45.84;101258.84;107556;1251;112132;-66
2023/05/28 09:58:05;;;;;;;15.70;4.70;;;;;;;24.03;46.47;101256.43;107634;1251;110249;-69
2023/05/28 10:00:36;;;;;;;11.40;4.10;;;;;;;24.13;45.59;101252.98;107644;1251;108941;-70
2023/05/28 10:03:23;;;;;;;8.10;4.40;;;;;;;24.11;46.22;101254.64;107608;1251;97914;-67
2023/05/28 10:05:56;;;;;;;18.30;7.20;;;;;;;24.13;46.41;101251.34;107610;1251;97697;-68
2023/05/28 10:08:25;;;;;;;8.00;4.60;;;;;;;24.17;46.25;101244.31;107654;1254;110883;-66
2023/05/28 10:10:55;;;;;;;12.00;4.90;;;;;;;24.15;46.31;101244.90;107672;1251;108431;-69
2023/05/28 10:13:25;;;;;;;18.10;4.60;;;;;;;24.16;45.98;101239.54;107529;1251;108163;-65
2023/05/28 10:15:53;;;;;;;11.20;4.80;;;;;;;24.17;45.96;101240.08;107560;1251;97824;-68
2023/05/28 10:18:24;;;;;;;11.20;5.90;;;;;;;24.15;45.92;101241.44;107473;1254;98395;-67
2023/05/28 10:20:53;;;;;;;18.70;5.90;;;;;;;24.13;45.89;101234.94;107559;1254;110911;-67
2023/05/28 10:23:23;;;;;;;14.00;4.80;;;;;;;24.13;45.92;101233.29;107534;1251;109286;-67
2023/05/28 10:25:52;;;;;;;10.00;4.60;;;;;;;24.19;46.60;101231.02;107620;1251;107495;-66
2023/05/28 10:28:21;;;;;;;12.50;4.50;;;;;;;24.30;46.32;101227.78;107525;1251;97696;-65
2023/05/28 10:31:03;;;;;;;9.30;4.50;;;;;;;24.32;45.99;101225.52;107656;1251;98372;-66
2023/05/28 10:33:36;;;;;;;12.60;5.30;;;;;;;24.29;45.69;101225.24;107611;1254;111009;-66
2023/05/28 10:36:12;;;;;;;10.30;4.20;;;;;;;24.28;45.94;101225.20;107528;1250;109433;-68
2023/05/28 10:38:43;;;;;;;18.20;4.70;;;;;;;24.29;45.71;101221.98;107532;1252;108329;-66
2023/05/28 10:41:18;;;;;;;10.70;4.80;;;;;;;24.22;46.12;101220.88;107614;1254;97822;-66
2023/05/28 10:43:48;;;;;;;18.70;5.00;;;;;;;24.19;45.49;101218.60;107576;1251;98423;-69
2023/05/28 10:46:18;;;;;;;10.70;3.50;;;;;;;24.17;45.42;101215.52;107612;1251;110129;-67
2023/05/28 10:49:05;;;;;;;10.20;3.70;;;;;;;24.18;45.67;101212.67;107663;1251;110969;-67
2023/05/28 10:52:00;;;;;;;8.20;3.80;;;;;;;24.33;45.40;101209.75;107529;1251;107614;-66
2023/05/28 10:54:29;;;;;;;12.20;4.20;;;;;;;24.47;43.52;101209.31;107573;1250;97841;-67
2023/05/28 10:57:07;;;;;;;9.60;4.00;;;;;;;24.56;43.26;101209.69;107576;1251;97717;-67
2023/05/28 10:59:42;;;;;;;15.80;4.80;;;;;;;24.83;43.77;101208.05;107619;1250;111277;-67
2023/05/28 11:02:12;;;;;;;9.30;4.70;;;;;;;25.15;42.94;101202.55;107545;1251;109641;-66
2023/05/28 11:04:40;;;;;;;20.20;4.90;;;;;;;25.41;41.46;101199.90;107629;1252;108021;-66
2023/05/28 11:07:11;;;;;;;10.00;3.70;;;;;;;25.57;42.63;101195.08;107565;1251;97674;-66
2023/05/28 11:09:40;;;;;;;12.20;4.90;;;;;;;25.92;41.73;101192.86;107616;1251;98369;-67
2023/05/28 11:12:09;;;;;;;11.50;3.90;;;;;;;26.32;40.45;101189.96;107586;1251;112610;-68
2023/05/28 11:14:38;;;;;;;14.10;4.40;;;;;;;26.70;39.58;101185.43;107669;1251;108729;-65
2023/05/28 11:17:13;;;;;;;13.50;4.40;;;;;;;27.01;38.44;101185.50;107614;1250;108420;-68
2023/05/28 11:19:46;;;;;;;8.40;4.10;;;;;;;27.13;39.40;101186.52;107635;1251;97802;-69
2023/05/28 11:22:17;;;;;;;13.20;3.80;;;;;;;27.44;38.81;101184.95;107614;1251;97832;-70
2023/05/28 11:25:09;;;;;;;13.10;5.90;;;;;;;27.75;37.40;101179.56;107633;1251;111374;-67
2023/05/28 11:27:40;;;;;;;17.10;4.40;;;;;;;27.89;37.80;101183.20;107598;1250;109214;-67